createdAt,value
2022-10-11T00:00:52.323Z,13.03
2022-10-11T00:02:10.190Z,13.05
2022-10-11T00:03:14.139Z,13.02
2022-10-11T00:04:19.332Z,12.98
2022-10-11T00:05:21.487Z,12.96
2022-10-11T00:06:23.780Z,12.93
2022-10-11T00:07:25.629Z,12.91
2022-10-11T00:08:29.350Z,12.88
2022-10-11T00:09:37.273Z,12.86
2022-10-11T00:10:57.830Z,12.82
2022-10-11T00:12:03.106Z,12.77
2022-10-11T00:13:06.234Z,12.76
2022-10-11T00:14:17.414Z,12.74
2022-10-11T00:15:20.662Z,12.71
2022-10-11T00:16:31.311Z,12.65
2022-10-11T00:17:38.895Z,12.61
2022-10-11T00:18:43.482Z,12.57
2022-10-11T00:19:46.155Z,12.55
2022-10-11T00:20:48.120Z,12.50
2022-10-11T00:21:53.155Z,12.48
2022-10-11T00:22:55.344Z,12.45
2022-10-11T00:23:57.410Z,12.42
2022-10-11T00:24:59.562Z,12.40
2022-10-11T00:26:10.201Z,12.38
2022-10-11T00:27:28.775Z,12.22
2022-10-11T00:28:43.037Z,12.30
2022-10-11T00:29:52.093Z,12.30
2022-10-11T00:31:05.819Z,12.26
2022-10-11T00:32:13.046Z,12.28
2022-10-11T00:33:20.272Z,12.27
2022-10-11T00:34:22.861Z,12.28
2022-10-11T00:35:28.755Z,12.27
2022-10-11T00:36:31.835Z,12.27
2022-10-11T00:37:40.055Z,12.25
2022-10-11T00:38:45.634Z,12.24
2022-10-11T00:39:51.967Z,12.22
2022-10-11T00:40:54.212Z,12.20
2022-10-11T00:41:57.864Z,12.18
2022-10-11T00:43:00.150Z,12.19
2022-10-11T00:44:17.968Z,12.18
2022-10-11T00:45:26.477Z,12.17
2022-10-11T00:46:34.907Z,12.17
2022-10-11T00:47:40.952Z,12.17
2022-10-11T00:48:48.118Z,12.16
2022-10-11T00:49:56.070Z,12.16
2022-10-11T00:51:00.691Z,12.14
2022-10-11T00:52:15.030Z,12.12
2022-10-11T00:53:17.229Z,12.09
2022-10-11T00:54:26.106Z,12.07
2022-10-11T00:55:32.449Z,12.03
2022-10-11T00:56:38.817Z,12.02
2022-10-11T00:57:48.146Z,11.99
2022-10-11T00:58:51.231Z,11.96
2022-10-11T00:59:55.338Z,11.93
2022-10-11T01:01:00.297Z,11.91
2022-10-11T01:02:04.568Z,11.86
2022-10-11T01:03:06.485Z,11.83
2022-10-11T01:04:08.490Z,11.80
2022-10-11T01:05:35.278Z,11.76
2022-10-11T01:06:37.241Z,11.64
2022-10-11T01:07:39.984Z,11.67
2022-10-11T01:08:42.383Z,11.64
2022-10-11T01:10:09.022Z,11.60
2022-10-11T01:11:22.939Z,11.58
2022-10-11T01:12:28.917Z,11.55
2022-10-11T01:13:38.606Z,11.52
2022-10-11T01:14:57.961Z,11.49
2022-10-11T01:16:31.510Z,11.44
2022-10-11T01:18:03.745Z,11.40
2022-10-11T01:19:29.928Z,11.36
2022-10-11T01:21:07.923Z,11.34
2022-10-11T01:22:25.220Z,11.30
2022-10-11T01:23:44.625Z,11.26
2022-10-11T01:25:22.596Z,11.22
2022-10-11T01:27:02.207Z,11.12
2022-10-11T01:28:37.735Z,11.04
2022-10-11T01:30:21.653Z,10.98
2022-10-11T01:31:39.604Z,10.92
2022-10-11T01:32:59.727Z,10.90
2022-10-11T01:34:21.056Z,10.88
2022-10-11T01:35:24.130Z,10.88
2022-10-11T01:36:40.476Z,10.88
2022-10-11T01:38:08.535Z,10.87
2022-10-11T01:39:24.532Z,10.74
2022-10-11T01:40:41.903Z,10.83
2022-10-11T01:41:49.105Z,10.82
2022-10-11T01:42:59.779Z,10.81
2022-10-11T01:44:06.658Z,10.80
2022-10-11T01:45:20.717Z,10.78
2022-10-11T01:46:24.532Z,10.76
2022-10-11T01:47:29.413Z,10.74
2022-10-11T01:48:32.795Z,10.72
2022-10-11T01:49:34.721Z,10.71
2022-10-11T01:50:43.097Z,10.70
2022-10-11T01:51:54.783Z,10.66
2022-10-11T01:53:04.336Z,10.65
2022-10-11T01:54:18.280Z,10.64
2022-10-11T01:55:37.100Z,10.63
2022-10-11T01:57:11.798Z,10.62
2022-10-11T01:58:49.515Z,10.59
2022-10-11T02:00:10.676Z,10.58
2022-10-11T02:01:50.122Z,10.54
2022-10-11T02:03:28.580Z,10.53
2022-10-11T02:05:12.256Z,10.51
2022-10-11T02:06:27.531Z,10.50
2022-10-11T02:07:52.964Z,10.50
2022-10-11T02:09:22.183Z,10.50
2022-10-11T02:10:35.955Z,10.50
2022-10-11T02:11:38.596Z,10.50
2022-10-11T02:12:44.005Z,10.51
2022-10-11T02:13:55.005Z,10.52
2022-10-11T02:14:57.790Z,10.49
2022-10-11T02:16:04.675Z,10.51
2022-10-11T02:17:15.869Z,10.51
2022-10-11T02:18:31.673Z,10.51
2022-10-11T02:19:42.341Z,10.50
2022-10-11T02:20:46.059Z,10.49
2022-10-11T02:21:54.767Z,10.49
2022-10-11T02:23:02.237Z,10.48
2022-10-11T02:24:10.826Z,10.46
2022-10-11T02:25:19.228Z,10.45
2022-10-11T02:26:23.145Z,10.42
2022-10-11T02:27:29.839Z,10.42
2022-10-11T02:28:36.299Z,10.39
2022-10-11T02:29:42.980Z,10.39
2022-10-11T02:30:48.986Z,10.38
2022-10-11T02:31:52.065Z,10.37
2022-10-11T02:32:55.954Z,10.33
2022-10-11T02:34:25.669Z,10.35
2022-10-11T02:35:30.108Z,10.33
2022-10-11T02:37:10.792Z,10.29
2022-10-11T02:38:23.035Z,10.25
2022-10-11T02:39:59.041Z,10.22
2022-10-11T02:41:26.285Z,10.17
2022-10-11T02:42:36.688Z,10.12
2022-10-11T02:43:44.327Z,10.03
2022-10-11T02:45:15.591Z,9.95
2022-10-11T02:46:17.844Z,9.89
2022-10-11T02:47:20.979Z,9.84
2022-10-11T02:48:24.602Z,9.82
2022-10-11T02:49:29.289Z,9.78
2022-10-11T02:50:31.598Z,9.79
2022-10-11T02:51:33.765Z,9.79
2022-10-11T02:52:35.600Z,9.77
2022-10-11T02:53:37.429Z,9.77
2022-10-11T02:54:39.647Z,9.76
2022-10-11T02:55:41.528Z,9.74
2022-10-11T02:56:43.345Z,9.75
2022-10-11T02:57:45.517Z,9.74
2022-10-11T02:58:47.654Z,9.74
2022-10-11T02:59:49.596Z,9.71
2022-10-11T03:00:51.767Z,9.73
2022-10-11T03:01:53.820Z,9.72
2022-10-11T03:02:55.886Z,9.70
2022-10-11T03:03:58.095Z,9.68
2022-10-11T03:05:00.025Z,9.64
2022-10-11T03:06:03.955Z,9.63
2022-10-11T03:07:06.096Z,9.60
2022-10-11T03:08:09.509Z,9.61
2022-10-11T03:09:11.408Z,9.60
2022-10-11T03:10:14.287Z,9.59
2022-10-11T03:11:16.381Z,9.60
2022-10-11T03:12:18.218Z,9.59
2022-10-11T03:13:20.119Z,9.59
2022-10-11T03:14:22.014Z,9.56
2022-10-11T03:15:24.154Z,9.56
2022-10-11T03:16:29.084Z,9.56
2022-10-11T03:17:36.610Z,9.56
2022-10-11T03:18:38.835Z,9.58
2022-10-11T03:19:40.775Z,9.55
2022-10-11T03:20:42.892Z,9.58
2022-10-11T03:21:45.075Z,9.58
2022-10-11T03:22:47.005Z,9.59
2022-10-11T03:23:49.141Z,9.59
2022-10-11T03:24:51.070Z,9.57
2022-10-11T03:25:52.924Z,9.59
2022-10-11T03:26:54.750Z,9.61
2022-10-11T03:27:58.735Z,9.62
2022-10-11T03:29:00.757Z,9.63
2022-10-11T03:30:03.241Z,9.63
2022-10-11T03:31:05.385Z,9.63
2022-10-11T03:32:07.181Z,9.60
2022-10-11T03:33:09.136Z,9.61
2022-10-11T03:34:11.075Z,9.60
2022-10-11T03:35:13.216Z,9.58
2022-10-11T03:36:15.434Z,9.57
2022-10-11T03:37:17.745Z,9.54
2022-10-11T03:38:22.275Z,9.51
2022-10-11T03:39:24.099Z,9.52
2022-10-11T03:40:26.307Z,9.49
2022-10-11T03:41:31.180Z,9.44
2022-10-11T03:42:33.020Z,9.42
2022-10-11T03:43:35.070Z,9.40
2022-10-11T03:44:38.207Z,9.39
2022-10-11T03:45:43.375Z,9.36
2022-10-11T03:46:45.176Z,9.35
2022-10-11T03:47:47.015Z,9.33
2022-10-11T03:48:48.797Z,9.32
2022-10-11T03:49:51.846Z,9.30
2022-10-11T03:50:53.705Z,9.30
2022-10-11T03:51:55.667Z,9.29
2022-10-11T03:52:57.495Z,9.29
2022-10-11T03:53:59.403Z,9.28
2022-10-11T03:55:01.649Z,9.27
2022-10-11T03:56:08.276Z,9.22
2022-10-11T03:57:10.512Z,9.20
2022-10-11T03:58:12.715Z,9.15
2022-10-11T03:59:14.491Z,9.12
2022-10-11T04:00:16.862Z,9.09
2022-10-11T04:01:18.884Z,9.03
2022-10-11T04:02:20.907Z,9.02
2022-10-11T04:03:23.050Z,8.98
2022-10-11T04:04:24.962Z,8.96
2022-10-11T04:05:26.856Z,8.94
2022-10-11T04:06:28.765Z,8.90
2022-10-11T04:07:30.568Z,8.89
2022-10-11T04:08:32.605Z,8.85
2022-10-11T04:09:34.766Z,8.83
2022-10-11T04:10:36.750Z,8.82
2022-10-11T04:11:38.561Z,8.80
2022-10-11T04:12:40.293Z,8.78
2022-10-11T04:13:42.069Z,8.80
2022-10-11T04:14:44.084Z,8.78
2022-10-11T04:15:46.778Z,8.80
2022-10-11T04:16:51.571Z,8.81
2022-10-11T04:17:53.381Z,8.80
2022-10-11T04:18:55.237Z,8.80
2022-10-11T04:19:57.135Z,8.81
2022-10-11T04:20:59.528Z,8.78
2022-10-11T04:22:01.405Z,8.72
2022-10-11T04:23:03.268Z,8.71
2022-10-11T04:24:05.485Z,8.69
2022-10-11T04:25:08.865Z,8.68
2022-10-11T04:26:10.832Z,8.65
2022-10-11T04:27:12.683Z,8.63
2022-10-11T04:28:14.777Z,8.63
2022-10-11T04:29:16.888Z,8.63
2022-10-11T04:30:18.823Z,8.61
2022-10-11T04:31:20.715Z,8.59
2022-10-11T04:32:24.835Z,8.57
2022-10-11T04:33:26.931Z,8.55
2022-10-11T04:34:28.886Z,8.54
2022-10-11T04:35:31.085Z,8.52
2022-10-11T04:36:34.945Z,8.52
2022-10-11T04:37:37.435Z,8.51
2022-10-11T04:38:39.241Z,8.50
2022-10-11T04:39:41.089Z,8.51
2022-10-11T04:40:46.325Z,8.48
2022-10-11T04:41:48.188Z,8.47
2022-10-11T04:42:51.386Z,8.44
2022-10-11T04:43:53.337Z,8.44
2022-10-11T04:44:55.254Z,8.43
2022-10-11T04:45:57.103Z,8.42
2022-10-11T04:46:58.910Z,8.39
2022-10-11T04:48:00.834Z,8.36
2022-10-11T04:49:03.072Z,8.34
2022-10-11T04:50:05.675Z,8.33
2022-10-11T04:51:07.531Z,8.32
2022-10-11T04:52:09.460Z,8.31
2022-10-11T04:53:11.205Z,8.31
2022-10-11T04:54:13.009Z,8.31
2022-10-11T04:55:14.893Z,8.31
2022-10-11T04:56:18.070Z,8.32
2022-10-11T04:57:19.892Z,8.30
2022-10-11T04:58:21.736Z,8.27
2022-10-11T04:59:23.590Z,8.28
2022-10-11T05:00:25.428Z,8.25
2022-10-11T05:01:27.260Z,8.22
2022-10-11T05:02:29.134Z,8.23
2022-10-11T05:03:33.585Z,8.24
2022-10-11T05:04:35.655Z,8.24
2022-10-11T05:05:37.546Z,8.24
2022-10-11T05:06:39.539Z,8.24
2022-10-11T05:07:41.619Z,8.25
2022-10-11T05:08:43.625Z,8.23
2022-10-11T05:09:45.560Z,8.25
2022-10-11T05:10:59.347Z,8.26
2022-10-11T05:12:01.330Z,8.26
2022-10-11T05:13:03.292Z,8.27
2022-10-11T05:14:05.218Z,8.30
2022-10-11T05:15:08.214Z,8.32
2022-10-11T05:16:12.683Z,8.33
2022-10-11T05:17:15.026Z,8.34
2022-10-11T05:18:17.035Z,8.31
2022-10-11T05:19:19.305Z,8.31
2022-10-11T05:20:29.960Z,8.31
2022-10-11T05:21:31.927Z,8.31
2022-10-11T05:22:33.736Z,8.32
2022-10-11T05:23:37.219Z,8.33
2022-10-11T05:24:39.697Z,8.34
2022-10-11T05:25:41.841Z,8.32
2022-10-11T05:26:43.704Z,8.37
2022-10-11T05:27:45.560Z,8.38
2022-10-11T05:28:47.593Z,8.39
2022-10-11T05:29:49.592Z,8.38
2022-10-11T05:30:51.890Z,8.35
2022-10-11T05:31:53.900Z,8.37
2022-10-11T05:32:55.776Z,8.34
2022-10-11T05:33:57.960Z,8.34
2022-10-11T05:34:59.817Z,8.31
2022-10-11T05:36:02.154Z,8.29
2022-10-11T05:37:04.475Z,8.26
2022-10-11T05:38:06.662Z,8.24
2022-10-11T05:39:08.450Z,8.23
2022-10-11T05:40:11.180Z,8.24
2022-10-11T05:41:15.350Z,8.25
2022-10-11T05:42:17.266Z,8.26
2022-10-11T05:43:19.056Z,8.27
2022-10-11T05:44:20.849Z,8.28
2022-10-11T05:45:22.701Z,8.27
2022-10-11T05:46:24.550Z,8.25
2022-10-11T05:47:26.512Z,8.26
2022-10-11T05:48:28.276Z,8.26
2022-10-11T05:49:30.216Z,8.25
2022-10-11T05:50:32.962Z,8.25
2022-10-11T05:51:34.935Z,8.25
2022-10-11T05:52:36.844Z,8.25
2022-10-11T05:53:38.919Z,8.27
2022-10-11T05:54:40.790Z,8.30
2022-10-11T05:55:43.324Z,8.33
2022-10-11T05:56:45.411Z,8.34
2022-10-11T05:57:47.391Z,8.38
2022-10-11T05:58:50.355Z,8.42
2022-10-11T05:59:52.263Z,8.46
2022-10-11T06:00:56.288Z,8.48
2022-10-11T06:01:58.104Z,8.51
2022-10-11T06:02:59.996Z,8.54
2022-10-11T06:04:02.305Z,8.53
2022-10-11T06:05:04.573Z,8.53
2022-10-11T06:06:06.990Z,8.55
2022-10-11T06:07:08.907Z,8.57
2022-10-11T06:08:10.729Z,8.60
2022-10-11T06:09:12.828Z,8.65
2022-10-11T06:10:14.654Z,8.69
2022-10-11T06:11:25.565Z,8.74
2022-10-11T06:12:30.489Z,8.81
2022-10-11T06:13:32.273Z,8.78
2022-10-11T06:14:35.219Z,8.79
2022-10-11T06:15:38.662Z,8.79
2022-10-11T06:16:41.908Z,8.81
2022-10-11T06:17:43.812Z,8.86
2022-10-11T06:18:46.001Z,8.91
2022-10-11T06:19:47.772Z,8.98
2022-10-11T06:20:49.492Z,9.07
2022-10-11T06:21:51.956Z,9.17
2022-10-11T06:22:53.914Z,9.25
2022-10-11T06:24:01.118Z,9.34
2022-10-11T06:25:03.955Z,9.46
2022-10-11T06:26:08.229Z,9.56
2022-10-11T06:27:11.621Z,9.66
2022-10-11T06:28:13.504Z,9.75
2022-10-11T06:29:15.475Z,9.86
2022-10-11T06:30:17.605Z,9.97
2022-10-11T06:31:25.730Z,10.08
2022-10-11T06:32:28.550Z,10.20
2022-10-11T06:33:30.526Z,10.32
2022-10-11T06:34:32.556Z,10.38
2022-10-11T06:35:34.466Z,10.43
2022-10-11T06:36:36.295Z,10.59
2022-10-11T06:37:38.195Z,10.68
2022-10-11T06:38:44.801Z,10.76
2022-10-11T06:39:47.350Z,10.84
2022-10-11T06:40:49.189Z,10.91
2022-10-11T06:41:50.962Z,10.97
2022-10-11T06:42:53.008Z,11.03
2022-10-11T06:43:55.567Z,11.10
2022-10-11T06:44:57.419Z,11.15
2022-10-11T06:45:59.561Z,11.16
2022-10-11T06:47:01.428Z,11.20
2022-10-11T06:48:05.311Z,11.24
2022-10-11T06:49:07.605Z,11.28
2022-10-11T06:50:09.519Z,11.27
2022-10-11T06:51:12.630Z,11.30
2022-10-11T06:52:15.944Z,11.34
2022-10-11T06:53:17.855Z,11.38
2022-10-11T06:54:19.754Z,11.44
2022-10-11T06:55:21.704Z,11.53
2022-10-11T06:56:27.792Z,11.56
2022-10-11T06:57:29.698Z,11.60
2022-10-11T06:58:31.970Z,11.64
2022-10-11T06:59:33.780Z,11.65
2022-10-11T07:00:36.351Z,11.74
2022-10-11T07:01:38.354Z,11.78
2022-10-11T07:02:40.746Z,11.80
2022-10-11T07:03:42.626Z,11.84
2022-10-11T07:04:44.524Z,11.91
2022-10-11T07:05:47.217Z,11.97
2022-10-11T07:06:49.645Z,12.02
2022-10-11T07:07:54.215Z,12.08
2022-10-11T07:08:57.154Z,12.14
2022-10-11T07:09:59.255Z,12.18
2022-10-11T07:11:07.269Z,12.25
2022-10-11T07:12:09.215Z,12.31
2022-10-11T07:13:16.241Z,12.36
2022-10-11T07:14:19.064Z,12.40
2022-10-11T07:15:21.577Z,12.47
2022-10-11T07:16:24.313Z,12.51
2022-10-11T07:17:26.618Z,12.57
2022-10-11T07:18:28.663Z,12.63
2022-10-11T07:19:30.654Z,12.67
2022-10-11T07:20:32.570Z,12.73
2022-10-11T07:21:34.929Z,12.80
2022-10-11T07:22:39.473Z,12.86
2022-10-11T07:23:41.986Z,12.93
2022-10-11T07:24:43.877Z,12.93
2022-10-11T07:25:46.243Z,13.00
2022-10-11T07:26:48.338Z,13.04
2022-10-11T07:27:50.164Z,13.08
2022-10-11T07:28:52.129Z,13.14
2022-10-11T07:29:54.508Z,13.18
2022-10-11T07:30:59.421Z,13.24
2022-10-11T07:32:01.408Z,13.28
2022-10-11T07:33:03.204Z,13.31
2022-10-11T07:34:05.201Z,13.34
2022-10-11T07:35:07.744Z,13.37
2022-10-11T07:36:11.042Z,13.38
2022-10-11T07:37:12.895Z,13.44
2022-10-11T07:38:15.841Z,13.45
2022-10-11T07:39:17.657Z,13.48
2022-10-11T07:40:19.624Z,13.52
2022-10-11T07:41:24.043Z,13.55
2022-10-11T07:42:25.956Z,13.61
2022-10-11T07:43:27.793Z,13.60
2022-10-11T07:44:29.791Z,13.64
2022-10-11T07:45:32.868Z,13.69
2022-10-11T07:46:34.659Z,13.80
2022-10-11T07:47:36.467Z,13.96
2022-10-11T07:48:39.076Z,14.22
2022-10-11T07:49:40.955Z,14.30
2022-10-11T07:50:44.506Z,14.29
2022-10-11T07:51:46.300Z,14.28
2022-10-11T07:52:48.169Z,14.29
2022-10-11T07:53:52.604Z,14.28
2022-10-11T07:54:54.399Z,14.26
2022-10-11T07:55:59.992Z,14.24
2022-10-11T07:57:02.085Z,14.19
2022-10-11T07:58:04.095Z,14.19
2022-10-11T07:59:07.496Z,14.15
2022-10-11T08:00:10.073Z,14.14
2022-10-11T08:01:15.215Z,14.15
2022-10-11T08:02:16.960Z,14.16
2022-10-11T08:03:18.739Z,14.13
2022-10-11T08:04:20.970Z,14.17
2022-10-11T08:05:22.914Z,14.20
2022-10-11T08:06:31.196Z,14.29
2022-10-11T08:07:33.593Z,14.41
2022-10-11T08:08:36.146Z,14.51
2022-10-11T08:09:38.168Z,14.73
2022-10-11T08:10:40.649Z,14.92
2022-10-11T08:11:42.511Z,15.09
2022-10-11T08:12:47.165Z,15.25
2022-10-11T08:13:49.543Z,15.36
2022-10-11T08:14:54.265Z,15.44
2022-10-11T08:15:56.401Z,15.53
2022-10-11T08:16:58.594Z,15.62
2022-10-11T08:18:00.770Z,15.70
2022-10-11T08:19:02.873Z,15.70
2022-10-11T08:20:05.826Z,15.69
2022-10-11T08:21:09.750Z,15.72
2022-10-11T08:22:11.550Z,15.68
2022-10-11T08:23:15.156Z,15.69
2022-10-11T08:24:20.235Z,15.65
2022-10-11T08:25:22.099Z,15.67
2022-10-11T08:26:24.749Z,15.79
2022-10-11T08:27:26.682Z,15.76
2022-10-11T08:28:29.088Z,15.79
2022-10-11T08:29:31.836Z,15.87
2022-10-11T08:30:34.044Z,15.94
2022-10-11T08:31:37.899Z,16.01
2022-10-11T08:32:39.785Z,16.07
2022-10-11T08:33:41.700Z,16.13
2022-10-11T08:34:43.454Z,16.17
2022-10-11T08:35:45.448Z,16.22
2022-10-11T08:36:48.166Z,16.28
2022-10-11T08:37:49.980Z,16.36
2022-10-11T08:38:52.145Z,16.36
2022-10-11T08:40:02.855Z,16.41
2022-10-11T08:41:31.629Z,16.46
2022-10-11T08:42:42.697Z,16.47
2022-10-11T08:43:52.856Z,16.48
2022-10-11T08:45:16.191Z,16.48
2022-10-11T08:46:24.321Z,16.46
2022-10-11T08:47:42.574Z,16.43
2022-10-11T08:48:47.547Z,16.36
2022-10-11T08:49:53.131Z,16.32
2022-10-11T08:50:55.340Z,16.29
2022-10-11T08:52:03.874Z,16.26
2022-10-11T08:53:17.799Z,16.22
2022-10-11T08:54:35.230Z,16.16
2022-10-11T08:55:43.502Z,16.12
2022-10-11T08:56:45.949Z,16.10
2022-10-11T08:57:55.635Z,16.08
2022-10-11T08:59:04.189Z,16.04
2022-10-11T09:00:14.498Z,15.99
2022-10-11T09:01:23.466Z,15.94
2022-10-11T09:03:06.803Z,15.90
2022-10-11T09:04:14.276Z,15.85
2022-10-11T09:05:19.513Z,15.80
2022-10-11T09:06:52.870Z,15.77
2022-10-11T09:08:14.239Z,15.66
2022-10-11T09:09:40.245Z,15.63
2022-10-11T09:11:00.748Z,15.60
2022-10-11T09:12:26.146Z,15.59
2022-10-11T09:13:52.346Z,15.52
2022-10-11T09:14:57.149Z,15.49
2022-10-11T09:16:11.539Z,15.48
2022-10-11T09:17:30.137Z,15.49
2022-10-11T09:18:48.472Z,15.49
2022-10-11T09:20:02.042Z,15.49
2022-10-11T09:21:33.415Z,15.48
2022-10-11T09:22:35.188Z,15.46
2022-10-11T09:24:05.295Z,15.43
2022-10-11T09:25:23.754Z,15.42
2022-10-11T09:26:37.041Z,15.40
2022-10-11T09:28:02.464Z,15.40
2022-10-11T09:29:25.259Z,15.38
2022-10-11T09:30:31.267Z,15.36
2022-10-11T09:31:33.471Z,15.37
2022-10-11T09:32:39.491Z,15.37
2022-10-11T09:33:48.095Z,15.33
2022-10-11T09:35:08.680Z,15.31
2022-10-11T09:36:22.610Z,15.31
2022-10-11T09:37:34.707Z,15.27
2022-10-11T09:38:42.702Z,15.28
2022-10-11T09:39:56.468Z,15.26
2022-10-11T09:41:17.311Z,15.28
2022-10-11T09:42:19.387Z,15.28
2022-10-11T09:43:21.563Z,15.28
2022-10-11T09:44:31.040Z,15.30
2022-10-11T09:45:33.149Z,15.29
2022-10-11T09:46:42.444Z,15.28
2022-10-11T09:47:44.652Z,15.27
2022-10-11T09:48:47.034Z,15.24
2022-10-11T09:49:52.643Z,15.28
2022-10-11T09:51:02.305Z,15.28
2022-10-11T09:52:10.871Z,15.27
2022-10-11T09:53:14.005Z,15.26
2022-10-11T09:54:18.535Z,15.27
2022-10-11T09:55:50.443Z,15.26
2022-10-11T09:56:52.786Z,15.26
2022-10-11T09:57:57.842Z,15.26
2022-10-11T09:59:08.607Z,15.28
2022-10-11T10:00:20.829Z,15.22
2022-10-11T10:01:25.768Z,15.26
2022-10-11T10:02:29.690Z,15.25
2022-10-11T10:03:34.900Z,15.25
2022-10-11T10:05:00.324Z,15.26
2022-10-11T10:06:26.956Z,15.26
2022-10-11T10:07:31.807Z,15.28
2022-10-11T10:08:34.665Z,15.30
2022-10-11T10:09:37.354Z,15.32
2022-10-11T10:10:59.614Z,15.31
2022-10-11T10:12:12.389Z,15.37
2022-10-11T10:13:40.614Z,15.41
2022-10-11T10:14:42.468Z,15.43
2022-10-11T10:15:47.474Z,15.46
2022-10-11T10:17:02.531Z,15.48
2022-10-11T10:18:06.085Z,15.51
2022-10-11T10:19:24.974Z,15.50
2022-10-11T10:20:34.664Z,15.47
2022-10-11T10:21:45.125Z,15.52
2022-10-11T10:22:47.405Z,15.48
2022-10-11T10:23:54.849Z,15.46
2022-10-11T10:24:59.638Z,15.50
2022-10-11T10:26:16.067Z,15.58
2022-10-11T10:27:30.264Z,15.63
2022-10-11T10:28:32.472Z,15.68
2022-10-11T10:29:36.363Z,15.74
2022-10-11T10:30:59.010Z,15.76
2022-10-11T10:32:14.655Z,15.86
2022-10-11T10:33:19.449Z,15.94
2022-10-11T10:34:34.902Z,16.03
2022-10-11T10:36:09.677Z,16.11
2022-10-11T10:37:25.006Z,16.22
2022-10-11T10:38:37.900Z,16.32
2022-10-11T10:39:48.533Z,16.40
2022-10-11T10:40:57.674Z,16.52
2022-10-11T10:42:04.650Z,16.62
2022-10-11T10:43:15.146Z,16.78
2022-10-11T10:44:17.121Z,16.97
2022-10-11T10:45:26.416Z,17.16
2022-10-11T10:46:45.720Z,17.36
2022-10-11T10:48:48.173Z,17.53
2022-10-11T10:50:23.112Z,17.76
2022-10-11T10:51:24.819Z,17.98
2022-10-11T10:52:26.614Z,18.07
2022-10-11T10:53:41.634Z,18.17
2022-10-11T10:54:43.459Z,18.24
2022-10-11T10:55:52.056Z,18.29
2022-10-11T10:57:01.493Z,18.31
2022-10-11T10:58:19.021Z,18.33
2022-10-11T10:59:52.080Z,18.36
2022-10-11T11:01:08.620Z,18.39
2022-10-11T11:02:39.752Z,18.33
2022-10-11T11:03:59.562Z,18.20
2022-10-11T11:05:22.862Z,18.10
2022-10-11T11:06:42.088Z,18.14
2022-10-11T11:07:51.270Z,18.15
2022-10-11T11:09:35.650Z,18.14
2022-10-11T11:11:00.156Z,18.13
2022-10-11T11:12:23.476Z,18.22
2022-10-11T11:13:36.303Z,18.30
2022-10-11T11:15:01.419Z,18.47
2022-10-11T11:16:22.120Z,18.71
2022-10-11T11:17:39.256Z,18.85
2022-10-11T11:18:47.021Z,19.00
2022-10-11T11:20:16.542Z,19.22
2022-10-11T11:21:52.432Z,19.48
2022-10-11T11:23:21.303Z,19.73
2022-10-11T11:25:02.217Z,20.02
2022-10-11T11:26:04.677Z,20.21
2022-10-11T11:27:39.445Z,20.29
2022-10-11T11:28:49.031Z,20.31
2022-10-11T11:30:06.014Z,20.27
2022-10-11T11:32:45.951Z,19.92
2022-10-11T11:34:41.415Z,19.78
2022-10-11T11:35:48.042Z,19.58
2022-10-11T11:36:54.266Z,19.56
2022-10-11T11:38:12.808Z,19.46
2022-10-11T11:39:26.131Z,19.37
2022-10-11T11:40:40.395Z,19.35
2022-10-11T11:41:50.166Z,19.34
2022-10-11T11:42:56.609Z,19.31
2022-10-11T11:44:13.678Z,19.25
2022-10-11T11:45:22.328Z,19.19
2022-10-11T11:46:43.695Z,19.15
2022-10-11T11:48:09.472Z,19.06
2022-10-11T11:49:16.811Z,18.97
2022-10-11T11:50:26.170Z,18.91
2022-10-11T11:51:37.979Z,18.81
2022-10-11T11:52:45.276Z,18.74
2022-10-11T11:54:13.792Z,18.69
2022-10-11T11:55:35.395Z,18.60
2022-10-11T11:57:14.788Z,18.53
2022-10-11T11:58:52.815Z,18.47
2022-10-11T12:00:19.228Z,18.41
2022-10-11T12:01:31.465Z,18.36
2022-10-11T12:02:37.343Z,18.34
2022-10-11T12:04:04.161Z,18.30
2022-10-11T12:05:08.670Z,18.24
2022-10-11T12:06:13.389Z,18.23
2022-10-11T12:07:24.275Z,18.23
2022-10-11T12:08:31.409Z,18.19
2022-10-11T12:09:38.517Z,18.20
2022-10-11T12:10:49.290Z,18.20
2022-10-11T12:11:58.129Z,18.17
2022-10-11T12:13:02.805Z,18.15
2022-10-11T12:14:36.322Z,18.14
2022-10-11T12:15:38.335Z,18.18
2022-10-11T12:17:20.531Z,18.22
2022-10-11T12:18:22.783Z,18.22
2022-10-11T12:19:24.764Z,18.24
2022-10-11T12:20:41.402Z,18.25
2022-10-11T12:21:44.026Z,18.23
2022-10-11T12:23:00.605Z,18.26
2022-10-11T12:24:17.371Z,18.30
2022-10-11T12:25:21.977Z,18.34
2022-10-11T12:26:43.871Z,18.37
2022-10-11T12:27:51.030Z,18.40
2022-10-11T12:29:17.635Z,18.33
2022-10-11T12:30:47.566Z,18.40
2022-10-11T12:31:58.253Z,18.41
2022-10-11T12:33:35.462Z,18.40
2022-10-11T12:35:52.329Z,18.36
2022-10-11T12:36:54.296Z,18.36
2022-10-11T12:38:15.952Z,18.37
2022-10-11T12:39:18.071Z,18.36
2022-10-11T12:40:51.397Z,18.34
2022-10-11T12:42:17.930Z,18.28
2022-10-11T12:43:30.212Z,18.22
2022-10-11T12:44:32.096Z,18.24
2022-10-11T12:45:34.396Z,18.23
2022-10-11T12:46:57.406Z,18.22
2022-10-11T12:48:11.533Z,18.26
2022-10-11T12:49:37.934Z,18.28
2022-10-11T12:50:46.671Z,18.35
2022-10-11T12:52:14.660Z,18.44
2022-10-11T12:54:21.454Z,18.54
2022-10-11T12:55:34.495Z,18.73
2022-10-11T12:56:42.226Z,18.95
2022-10-11T12:58:15.305Z,19.17
2022-10-11T12:59:22.828Z,19.44
2022-10-11T13:00:30.742Z,19.61
2022-10-11T13:01:48.282Z,19.86
2022-10-11T13:02:50.235Z,20.14
2022-10-11T13:04:08.884Z,20.29
2022-10-11T13:05:25.612Z,20.45
2022-10-11T13:06:37.743Z,20.50
2022-10-11T13:07:40.827Z,20.47
2022-10-11T13:08:48.514Z,20.42
2022-10-11T13:09:53.596Z,20.41
2022-10-11T13:11:00.726Z,20.37
2022-10-11T13:12:18.237Z,20.42
2022-10-11T13:13:25.921Z,20.49
2022-10-11T13:14:30.558Z,20.52
2022-10-11T13:15:34.048Z,20.49
2022-10-11T13:17:04.320Z,20.52
2022-10-11T13:18:14.094Z,20.34
2022-10-11T13:19:16.627Z,20.24
2022-10-11T13:20:23.373Z,20.20
2022-10-11T13:21:31.583Z,20.08
2022-10-11T13:22:35.351Z,20.10
2022-10-11T13:23:38.443Z,20.00
2022-10-11T13:24:40.830Z,19.97
2022-10-11T13:25:43.012Z,19.95
2022-10-11T13:26:47.600Z,19.92
2022-10-11T13:27:52.259Z,19.89
2022-10-11T13:28:54.894Z,19.86
2022-10-11T13:30:01.583Z,19.81
2022-10-11T13:31:05.227Z,19.75
2022-10-11T13:32:13.052Z,19.69
2022-10-11T13:33:24.737Z,19.61
2022-10-11T13:34:30.577Z,19.52
2022-10-11T13:35:37.742Z,19.45
2022-10-11T13:36:42.106Z,19.41
2022-10-11T13:37:48.525Z,19.34
2022-10-11T13:38:57.261Z,19.25
2022-10-11T13:40:03.962Z,19.12
2022-10-11T13:41:09.447Z,19.00
2022-10-11T13:42:17.696Z,18.93
2022-10-11T13:43:24.437Z,18.89
2022-10-11T13:44:26.759Z,18.87
2022-10-11T13:45:32.248Z,18.83
2022-10-11T13:46:36.872Z,18.77
2022-10-11T13:47:39.003Z,18.71
2022-10-11T13:48:40.936Z,18.60
2022-10-11T13:50:04.824Z,18.64
2022-10-11T13:51:26.269Z,18.57
2022-10-11T13:52:27.895Z,18.52
2022-10-11T13:53:29.663Z,18.47
2022-10-11T13:55:00.458Z,18.47
2022-10-11T13:56:07.935Z,18.46
2022-10-11T13:57:12.645Z,18.44
2022-10-11T13:58:19.222Z,18.42
2022-10-11T13:59:27.668Z,18.38
2022-10-11T14:00:36.676Z,18.38
2022-10-11T14:01:43.345Z,18.39
2022-10-11T14:02:50.827Z,18.37
2022-10-11T14:04:15.008Z,18.33
2022-10-11T14:05:44.822Z,18.31
2022-10-11T14:06:57.666Z,18.31
2022-10-11T14:08:03.446Z,18.30
2022-10-11T14:09:21.267Z,18.30
2022-10-11T14:10:23.975Z,18.23
2022-10-11T14:11:38.949Z,18.20
2022-10-11T14:12:43.810Z,18.12
2022-10-11T14:13:49.148Z,18.06
2022-10-11T14:14:52.485Z,18.01
2022-10-11T14:16:06.679Z,17.99
2022-10-11T14:17:18.080Z,18.02
2022-10-11T14:18:57.275Z,18.02
2022-10-11T14:20:19.690Z,18.05
2022-10-11T14:21:45.209Z,17.99
2022-10-11T14:22:50.857Z,17.93
2022-10-11T14:23:53.984Z,17.89
2022-10-11T14:24:55.777Z,17.86
2022-10-11T14:25:57.597Z,17.77
2022-10-11T14:27:01.054Z,17.69
2022-10-11T14:28:05.339Z,17.54
2022-10-11T14:29:13.345Z,17.44
2022-10-11T14:30:25.732Z,17.38
2022-10-11T14:31:29.484Z,17.32
2022-10-11T14:32:33.608Z,17.37
2022-10-11T14:33:36.079Z,17.40
2022-10-11T14:34:38.029Z,17.37
2022-10-11T14:35:41.069Z,17.27
2022-10-11T14:36:42.859Z,17.18
2022-10-11T14:37:45.497Z,17.13
2022-10-11T14:38:47.390Z,17.08
2022-10-11T14:39:50.351Z,17.05
2022-10-11T14:40:52.307Z,17.04
2022-10-11T14:41:54.450Z,17.02
2022-10-11T14:42:56.650Z,17.00
2022-10-11T14:43:59.445Z,16.99
2022-10-11T14:45:01.463Z,17.00
2022-10-11T14:46:04.683Z,17.01
2022-10-11T14:47:07.567Z,16.93
2022-10-11T14:48:09.375Z,16.88
2022-10-11T14:49:24.543Z,16.86
2022-10-11T14:50:29.520Z,16.83